createdAt,value
2023-04-15T00:00:11.000Z,275.94
2023-04-15T00:02:18.000Z,275.92
2023-04-15T00:03:44.000Z,275.92
2023-04-15T00:05:51.000Z,275.89
2023-04-15T00:07:17.000Z,275.88
2023-04-15T00:09:24.000Z,275.88
2023-04-15T00:10:50.000Z,275.88
2023-04-15T00:12:56.000Z,275.88
2023-04-15T00:14:23.000Z,275.85
2023-04-15T00:16:29.000Z,275.82
2023-04-15T00:19:20.000Z,275.8
2023-04-15T00:20:46.000Z,275.8
2023-04-15T00:22:52.000Z,275.8
2023-04-15T00:24:19.000Z,275.8
2023-04-15T00:26:25.000Z,275.78
2023-04-15T00:27:52.000Z,275.78
2023-04-15T00:29:58.000Z,275.77
2023-04-15T00:31:24.000Z,275.74
2023-04-15T00:33:30.000Z,275.73
2023-04-15T00:34:57.000Z,275.71
2023-04-15T00:37:03.000Z,275.7
2023-04-15T00:38:30.000Z,275.67
2023-04-15T00:40:36.000Z,275.63
2023-04-15T00:42:02.000Z,275.62
2023-04-15T00:44:08.000Z,275.59
2023-04-15T00:45:35.000Z,275.59
2023-04-15T00:47:41.000Z,275.59
2023-04-15T00:49:08.000Z,275.59
2023-04-15T00:51:14.000Z,275.59
2023-04-15T00:52:40.000Z,275.6
2023-04-15T00:54:46.000Z,275.6
2023-04-15T00:57:38.000Z,275.62
2023-04-15T00:59:04.000Z,275.62
2023-04-15T01:01:10.000Z,275.62
2023-04-15T01:02:37.000Z,275.63
2023-04-15T01:04:43.000Z,275.63
2023-04-15T01:06:10.000Z,275.62
2023-04-15T01:08:16.000Z,275.62
2023-04-15T01:09:42.000Z,275.6
2023-04-15T01:11:48.000Z,275.56
2023-04-15T01:13:15.000Z,275.55
2023-04-15T01:15:21.000Z,275.53
2023-04-15T01:16:48.000Z,275.55
2023-04-15T01:18:54.000Z,275.53
2023-04-15T01:20:20.000Z,275.52
2023-04-15T01:22:27.000Z,275.52
2023-04-15T01:23:53.000Z,275.49
2023-04-15T01:25:59.000Z,275.5
2023-04-15T01:27:26.000Z,275.5
2023-04-15T01:29:32.000Z,275.5
2023-04-15T01:30:59.000Z,275.52
2023-04-15T01:33:05.000Z,275.5
2023-04-15T01:35:56.000Z,275.52
2023-04-15T01:37:22.000Z,275.56
2023-04-15T01:39:29.000Z,275.57
2023-04-15T01:40:55.000Z,275.6
2023-04-15T01:43:01.000Z,275.63
2023-04-15T01:44:28.000Z,275.66
2023-04-15T01:46:34.000Z,275.66
2023-04-15T01:48:00.000Z,275.67
2023-04-15T01:50:07.000Z,275.67
2023-04-15T01:51:33.000Z,275.69
2023-04-15T01:53:39.000Z,275.69
2023-04-15T01:55:06.000Z,275.7
2023-04-15T01:57:12.000Z,275.69
2023-04-15T01:58:38.000Z,275.69
2023-04-15T02:00:44.000Z,275.69
2023-04-15T02:02:11.000Z,275.69
2023-04-15T02:04:17.000Z,275.7
2023-04-15T02:05:44.000Z,275.71
2023-04-15T02:07:50.000Z,275.7
2023-04-15T02:09:16.000Z,275.71
2023-04-15T02:11:22.000Z,275.73
2023-04-15T02:14:13.000Z,275.7
2023-04-15T02:15:40.000Z,275.7
2023-04-15T02:17:46.000Z,275.7
2023-04-15T02:19:13.000Z,275.7
2023-04-15T02:21:19.000Z,275.71
2023-04-15T02:22:46.000Z,275.7
2023-04-15T02:24:52.000Z,275.7
2023-04-15T02:26:18.000Z,275.69
2023-04-15T02:28:24.000Z,275.7
2023-04-15T02:29:51.000Z,275.67
2023-04-15T02:31:57.000Z,275.67
2023-04-15T02:33:23.000Z,275.67
2023-04-15T02:35:29.000Z,275.69
2023-04-15T02:36:56.000Z,275.67
2023-04-15T02:39:02.000Z,275.67
2023-04-15T02:40:29.000Z,275.67
2023-04-15T02:42:35.000Z,275.67
2023-04-15T02:44:02.000Z,275.67
2023-04-15T02:46:08.000Z,275.7
2023-04-15T02:47:34.000Z,275.7
2023-04-15T02:49:41.000Z,275.7
2023-04-15T02:52:32.000Z,275.7
2023-04-15T02:53:58.000Z,275.7
2023-04-15T02:56:04.000Z,275.7
2023-04-15T02:57:31.000Z,275.71
2023-04-15T02:59:37.000Z,275.71
2023-04-15T03:01:04.000Z,275.75
2023-04-15T03:03:10.000Z,275.75
2023-04-15T03:04:37.000Z,275.75
2023-04-15T03:06:43.000Z,275.77
2023-04-15T03:08:09.000Z,275.77
2023-04-15T03:10:15.000Z,275.8
2023-04-15T03:11:42.000Z,275.81
2023-04-15T03:13:48.000Z,275.82
2023-04-15T03:15:14.000Z,275.82
2023-04-15T03:17:21.000Z,275.82
2023-04-15T03:18:47.000Z,275.82
2023-04-15T03:20:53.000Z,275.82
2023-04-15T03:22:20.000Z,275.84
2023-04-15T03:24:26.000Z,275.84
2023-04-15T03:25:52.000Z,275.85
2023-04-15T03:27:59.000Z,275.84
2023-04-15T03:30:50.000Z,275.82
2023-04-15T03:32:16.000Z,275.82
2023-04-15T03:34:23.000Z,275.82
2023-04-15T03:35:49.000Z,275.81
2023-04-15T03:37:55.000Z,275.82
2023-04-15T03:39:22.000Z,275.82
2023-04-15T03:41:28.000Z,275.81
2023-04-15T03:42:54.000Z,275.81
2023-04-15T03:45:00.000Z,275.82
2023-04-15T03:46:27.000Z,275.82
2023-04-15T03:48:33.000Z,275.81
2023-04-15T03:49:59.000Z,275.81
2023-04-15T03:52:06.000Z,275.81
2023-04-15T03:53:32.000Z,275.8
2023-04-15T03:55:38.000Z,275.78
2023-04-15T03:57:05.000Z,275.77
2023-04-15T03:59:11.000Z,275.77
2023-04-15T04:00:37.000Z,275.77
2023-04-15T04:02:43.000Z,275.74
2023-04-15T04:04:10.000Z,275.74
2023-04-15T04:06:17.000Z,275.71
2023-04-15T04:09:08.000Z,275.7
2023-04-15T04:10:34.000Z,275.7
2023-04-15T04:12:41.000Z,275.67
2023-04-15T04:14:07.000Z,275.64
2023-04-15T04:16:13.000Z,275.62
2023-04-15T04:17:40.000Z,275.63
2023-04-15T04:19:46.000Z,275.62
2023-04-15T04:21:13.000Z,275.63
2023-04-15T04:23:19.000Z,275.64
2023-04-15T04:24:45.000Z,275.63
2023-04-15T04:26:52.000Z,275.64
2023-04-15T04:28:18.000Z,275.63
2023-04-15T04:30:24.000Z,275.63
2023-04-15T04:31:51.000Z,275.62
2023-04-15T04:33:57.000Z,275.62
2023-04-15T04:35:23.000Z,275.6
2023-04-15T04:37:29.000Z,275.59
2023-04-15T04:38:56.000Z,275.57
2023-04-15T04:41:02.000Z,275.59
2023-04-15T04:42:28.000Z,275.57
2023-04-15T04:44:35.000Z,275.57
2023-04-15T04:47:26.000Z,275.56
2023-04-15T04:48:52.000Z,275.56
2023-04-15T04:50:58.000Z,275.57
2023-04-15T04:52:25.000Z,275.59
2023-04-15T04:54:31.000Z,275.59
2023-04-15T04:55:58.000Z,275.62
2023-04-15T04:58:04.000Z,275.64
2023-04-15T04:59:30.000Z,275.64
2023-04-15T05:01:36.000Z,275.67
2023-04-15T05:03:03.000Z,275.7
2023-04-15T05:05:10.000Z,275.71
2023-04-15T05:06:36.000Z,275.73
2023-04-15T05:08:42.000Z,275.74
2023-04-15T05:10:09.000Z,275.77
2023-04-15T05:12:15.000Z,275.78
2023-04-15T05:13:41.000Z,275.81
2023-04-15T05:15:47.000Z,275.82
2023-04-15T05:17:14.000Z,275.87
2023-04-15T05:19:20.000Z,275.87
2023-04-15T05:20:47.000Z,275.92
2023-04-15T05:22:53.000Z,275.96
2023-04-15T05:25:44.000Z,276.02
2023-04-15T05:27:10.000Z,276.07
2023-04-15T05:29:16.000Z,276.13
2023-04-15T05:30:43.000Z,276.18
2023-04-15T05:32:49.000Z,276.23
2023-04-15T05:34:16.000Z,276.29
2023-04-15T05:36:22.000Z,276.33
2023-04-15T05:37:48.000Z,276.39
2023-04-15T05:39:54.000Z,276.43
2023-04-15T05:41:21.000Z,276.5
2023-04-15T05:43:27.000Z,276.57
2023-04-15T05:44:54.000Z,276.65
2023-04-15T05:47:00.000Z,276.74
2023-04-15T05:48:26.000Z,276.95
2023-04-15T05:50:32.000Z,277.09
2023-04-15T05:51:59.000Z,277.18
2023-04-15T05:54:05.000Z,277.22
2023-04-15T05:55:32.000Z,277.29
2023-04-15T05:57:38.000Z,277.38
2023-04-15T05:59:04.000Z,277.46
2023-04-15T06:01:10.000Z,277.52
2023-04-15T06:04:01.000Z,277.63
2023-04-15T06:05:28.000Z,277.67
2023-04-15T06:07:34.000Z,277.71
2023-04-15T06:09:01.000Z,277.75
2023-04-15T06:11:07.000Z,277.75
2023-04-15T06:12:34.000Z,277.84
2023-04-15T06:14:40.000Z,277.91
2023-04-15T06:16:06.000Z,278.04
2023-04-15T06:18:13.000Z,278.14
2023-04-15T06:19:39.000Z,278.24
2023-04-15T06:21:45.000Z,278.3
2023-04-15T06:23:12.000Z,278.37
2023-04-15T06:25:18.000Z,278.43
2023-04-15T06:26:45.000Z,278.47
2023-04-15T06:28:51.000Z,278.53
2023-04-15T06:30:17.000Z,278.58
2023-04-15T06:32:23.000Z,278.62
2023-04-15T06:33:50.000Z,278.67
2023-04-15T06:35:56.000Z,278.69
2023-04-15T06:37:22.000Z,278.74
2023-04-15T06:39:29.000Z,278.76
2023-04-15T06:42:20.000Z,278.83
2023-04-15T06:43:46.000Z,278.88
2023-04-15T06:45:52.000Z,278.9
2023-04-15T06:47:19.000Z,278.92
2023-04-15T06:49:25.000Z,278.94
2023-04-15T06:50:52.000Z,279.01
2023-04-15T06:52:58.000Z,279.01
2023-04-15T06:54:24.000Z,279.05
2023-04-15T06:56:30.000Z,279.08
2023-04-15T06:57:57.000Z,279.13
2023-04-15T07:00:03.000Z,279.17
2023-04-15T07:01:30.000Z,279.23
2023-04-15T07:03:36.000Z,279.28
2023-04-15T07:05:02.000Z,279.34
2023-04-15T07:07:08.000Z,279.4
2023-04-15T07:08:35.000Z,279.45
2023-04-15T07:10:41.000Z,279.51
2023-04-15T07:12:07.000Z,279.6
2023-04-15T07:14:14.000Z,279.67
2023-04-15T07:15:40.000Z,279.76
2023-04-15T07:17:46.000Z,279.82
2023-04-15T07:20:38.000Z,279.96
2023-04-15T07:22:04.000Z,280.06
2023-04-15T07:24:10.000Z,280.12
2023-04-15T07:25:37.000Z,280.17
2023-04-15T07:27:43.000Z,280.18
2023-04-15T07:29:09.000Z,280.16
2023-04-15T07:31:15.000Z,280.16
2023-04-15T07:32:42.000Z,280.13
2023-04-15T07:34:48.000Z,280.13
2023-04-15T07:36:14.000Z,280.1
2023-04-15T07:38:21.000Z,280.1
2023-04-15T07:39:47.000Z,280.09
2023-04-15T07:41:53.000Z,280.07
2023-04-15T07:43:20.000Z,280.09
2023-04-15T07:45:26.000Z,280.09
2023-04-15T07:46:53.000Z,280.09
2023-04-15T07:48:59.000Z,280.1
2023-04-15T07:50:25.000Z,280.07
2023-04-15T07:52:31.000Z,280.1
2023-04-15T07:53:58.000Z,280.12
2023-04-15T07:56:04.000Z,280.13
2023-04-15T07:58:55.000Z,280.16
2023-04-15T08:00:22.000Z,280.23
2023-04-15T08:02:28.000Z,280.27
2023-04-15T08:03:54.000Z,280.25
2023-04-15T08:06:01.000Z,280.25
2023-04-15T08:07:27.000Z,280.24
2023-04-15T08:09:33.000Z,280.21
2023-04-15T08:11:00.000Z,280.17
2023-04-15T08:13:06.000Z,280.13
2023-04-15T08:14:33.000Z,280.09
2023-04-15T08:16:39.000Z,280.03
2023-04-15T08:18:05.000Z,280.02
2023-04-15T08:20:11.000Z,279.99
2023-04-15T08:21:38.000Z,280.02
2023-04-15T08:23:44.000Z,280
2023-04-15T08:25:10.000Z,280.03
2023-04-15T08:27:17.000Z,280.03
2023-04-15T08:28:43.000Z,280
2023-04-15T08:30:49.000Z,280.02
2023-04-15T08:32:16.000Z,280.02
2023-04-15T08:34:22.000Z,280.02
2023-04-15T08:37:13.000Z,279.98
2023-04-15T08:38:39.000Z,279.96
2023-04-15T08:40:46.000Z,279.92
2023-04-15T08:42:12.000Z,279.91
2023-04-15T08:44:18.000Z,279.86
2023-04-15T08:45:45.000Z,279.85
2023-04-15T08:47:51.000Z,279.86
2023-04-15T08:49:17.000Z,279.88
2023-04-15T08:51:24.000Z,279.88
2023-04-15T08:52:51.000Z,279.86
2023-04-15T08:54:57.000Z,279.84
2023-04-15T08:56:24.000Z,279.84
2023-04-15T08:58:30.000Z,279.81
2023-04-15T08:59:56.000Z,279.81
2023-04-15T09:02:02.000Z,279.81
2023-04-15T09:03:29.000Z,279.81
2023-04-15T09:05:35.000Z,279.81
2023-04-15T09:07:02.000Z,279.82
2023-04-15T09:09:08.000Z,279.82
2023-04-15T09:10:34.000Z,279.8
2023-04-15T09:12:40.000Z,279.8
2023-04-15T09:15:31.000Z,279.8
2023-04-15T09:16:58.000Z,279.81
2023-04-15T09:19:04.000Z,279.82
2023-04-15T09:20:30.000Z,279.88
2023-04-15T09:22:37.000Z,279.91
2023-04-15T09:24:03.000Z,279.98
2023-04-15T09:26:10.000Z,279.99
2023-04-15T09:27:36.000Z,280.02
2023-04-15T09:29:42.000Z,280.03
2023-04-15T09:31:09.000Z,280.05
2023-04-15T09:33:15.000Z,280.05
2023-04-15T09:34:41.000Z,280.09
2023-04-15T09:36:47.000Z,280.06
2023-04-15T09:38:17.000Z,280.05
2023-04-15T09:40:23.000Z,280.05
2023-04-15T09:41:49.000Z,280.03
2023-04-15T09:43:56.000Z,280
2023-04-15T09:45:22.000Z,280.02
2023-04-15T09:47:28.000Z,280.06
2023-04-15T09:48:55.000Z,280.07
2023-04-15T09:51:01.000Z,280.07
2023-04-15T09:53:52.000Z,280.07
2023-04-15T09:55:19.000Z,280.06
2023-04-15T09:57:25.000Z,280.05
2023-04-15T09:58:51.000Z,280.06
2023-04-15T10:00:58.000Z,280.05
2023-04-15T10:02:24.000Z,280.05
2023-04-15T10:04:30.000Z,280.05
2023-04-15T10:05:57.000Z,280.02
2023-04-15T10:08:03.000Z,280
2023-04-15T10:09:30.000Z,279.99
2023-04-15T10:11:36.000Z,279.98
2023-04-15T10:13:02.000Z,279.99
2023-04-15T10:15:08.000Z,280
2023-04-15T10:16:35.000Z,279.98
2023-04-15T10:18:41.000Z,279.99
2023-04-15T10:20:07.000Z,279.99
2023-04-15T10:22:14.000Z,279.96
2023-04-15T10:23:40.000Z,279.96
2023-04-15T10:25:46.000Z,279.95
2023-04-15T10:27:13.000Z,279.95
2023-04-15T10:29:19.000Z,279.96
2023-04-15T10:32:10.000Z,279.96
2023-04-15T10:33:36.000Z,279.98
2023-04-15T10:35:42.000Z,279.99
2023-04-15T10:37:09.000Z,280
2023-04-15T10:39:15.000Z,280.02
2023-04-15T10:40:41.000Z,280.03
2023-04-15T10:42:48.000Z,280.06
2023-04-15T10:44:14.000Z,280.07
2023-04-15T10:46:20.000Z,280.1
2023-04-15T10:47:47.000Z,280.1
2023-04-15T10:49:53.000Z,280.13
2023-04-15T10:51:20.000Z,280.14
2023-04-15T10:53:26.000Z,280.17
2023-04-15T10:54:52.000Z,280.18
2023-04-15T10:56:58.000Z,280.23
2023-04-15T10:58:25.000Z,280.27
2023-04-15T11:00:31.000Z,280.28
2023-04-15T11:01:57.000Z,280.32
2023-04-15T11:04:04.000Z,280.32
2023-04-15T11:05:31.000Z,280.32
2023-04-15T11:07:37.000Z,280.34
2023-04-15T11:10:28.000Z,280.34
2023-04-15T11:11:55.000Z,280.35
2023-04-15T11:14:01.000Z,280.35
2023-04-15T11:15:28.000Z,280.34
2023-04-15T11:17:34.000Z,280.34
2023-04-15T11:19:00.000Z,280.34
2023-04-15T11:21:06.000Z,280.35
2023-04-15T11:22:33.000Z,280.34
2023-04-15T11:24:39.000Z,280.37
2023-04-15T11:26:06.000Z,280.37
2023-04-15T11:28:12.000Z,280.4
2023-04-15T11:29:38.000Z,280.43
2023-04-15T11:31:44.000Z,280.43
2023-04-15T11:33:11.000Z,280.42
2023-04-15T11:35:17.000Z,280.42
2023-04-15T11:36:44.000Z,280.4
2023-04-15T11:38:50.000Z,280.38
2023-04-15T11:40:16.000Z,280.34
2023-04-15T11:42:22.000Z,280.34
2023-04-15T11:43:49.000Z,280.31
2023-04-15T11:45:55.000Z,280.31
2023-04-15T11:48:47.000Z,280.31
2023-04-15T11:50:13.000Z,280.31
2023-04-15T11:52:19.000Z,280.31
2023-04-15T11:53:46.000Z,280.32
2023-04-15T11:55:52.000Z,280.34
2023-04-15T11:57:19.000Z,280.32
2023-04-15T11:59:25.000Z,280.34
2023-04-15T12:01:02.000Z,280.34
2023-04-15T12:03:08.000Z,280.31
2023-04-15T12:04:35.000Z,280.32
2023-04-15T12:06:41.000Z,280.32
2023-04-15T12:08:07.000Z,280.34
2023-04-15T12:10:14.000Z,280.34
2023-04-15T12:11:40.000Z,280.32
2023-04-15T12:13:46.000Z,280.32
2023-04-15T12:15:13.000Z,280.31
2023-04-15T12:17:19.000Z,280.31
2023-04-15T12:18:46.000Z,280.28
2023-04-15T12:20:52.000Z,280.28
2023-04-15T12:22:18.000Z,280.3
2023-04-15T12:24:24.000Z,280.27
2023-04-15T12:27:15.000Z,280.3
2023-04-15T12:28:42.000Z,280.3
2023-04-15T12:30:48.000Z,280.28
2023-04-15T12:32:15.000Z,280.28
2023-04-15T12:34:21.000Z,280.28
2023-04-15T12:35:47.000Z,280.27
2023-04-15T12:37:54.000Z,280.28
2023-04-15T12:39:20.000Z,280.28
2023-04-15T12:41:26.000Z,280.27
2023-04-15T12:42:53.000Z,280.27
2023-04-15T12:44:59.000Z,280.27
2023-04-15T12:46:25.000Z,280.25
2023-04-15T12:48:32.000Z,280.27
2023-04-15T12:49:58.000Z,280.28
2023-04-15T12:52:04.000Z,280.28
2023-04-15T12:53:31.000Z,280.27
2023-04-15T12:55:37.000Z,280.28
2023-04-15T12:57:04.000Z,280.28
2023-04-15T12:59:13.000Z,280.31
2023-04-15T13:00:40.000Z,280.28
2023-04-15T13:02:46.000Z,280.28
2023-04-15T13:05:37.000Z,280.25
2023-04-15T13:07:04.000Z,280.25
2023-04-15T13:09:10.000Z,280.25
2023-04-15T13:10:36.000Z,280.27
2023-04-15T13:12:42.000Z,280.27
2023-04-15T13:14:09.000Z,280.27
2023-04-15T13:16:15.000Z,280.27
2023-04-15T13:17:42.000Z,280.3
2023-04-15T13:19:48.000Z,280.28
2023-04-15T13:21:14.000Z,280.3
2023-04-15T13:23:21.000Z,280.3
2023-04-15T13:24:47.000Z,280.3
2023-04-15T13:26:53.000Z,280.25
2023-04-15T13:28:20.000Z,280.25
2023-04-15T13:30:26.000Z,280.24
2023-04-15T13:31:52.000Z,280.24
2023-04-15T13:33:59.000Z,280.21
2023-04-15T13:35:25.000Z,280.2
2023-04-15T13:37:31.000Z,280.18
2023-04-15T13:38:58.000Z,280.18
2023-04-15T13:41:04.000Z,280.18
2023-04-15T13:43:55.000Z,280.2
2023-04-15T13:45:22.000Z,280.21
2023-04-15T13:47:28.000Z,280.21
2023-04-15T13:48:54.000Z,280.2
2023-04-15T13:51:01.000Z,280.2
2023-04-15T13:52:27.000Z,280.2
2023-04-15T13:54:33.000Z,280.2
2023-04-15T13:56:04.000Z,280.2
2023-04-15T13:58:10.000Z,280.2
2023-04-15T13:59:37.000Z,280.18
2023-04-15T14:01:43.000Z,280.17
2023-04-15T14:03:10.000Z,280.16
2023-04-15T14:05:16.000Z,280.14
2023-04-15T14:06:42.000Z,280.16
2023-04-15T14:08:48.000Z,280.14
2023-04-15T14:10:15.000Z,280.14
2023-04-15T14:12:21.000Z,280.12
2023-04-15T14:13:47.000Z,280.13
2023-04-15T14:15:54.000Z,280.13
2023-04-15T14:17:20.000Z,280.1
2023-04-15T14:19:26.000Z,280.1
2023-04-15T14:22:17.000Z,280.09
2023-04-15T14:23:44.000Z,280.1
2023-04-15T14:25:50.000Z,280.09
2023-04-15T14:27:16.000Z,280.09
2023-04-15T14:29:22.000Z,280.07
2023-04-15T14:30:49.000Z,280.06
2023-04-15T14:32:55.000Z,280.07
2023-04-15T14:34:22.000Z,280.07
2023-04-15T14:36:28.000Z,280.09
2023-04-15T14:37:55.000Z,280.07
2023-04-15T14:40:01.000Z,280.1
2023-04-15T14:41:27.000Z,280.1
2023-04-15T14:43:33.000Z,280.1
2023-04-15T14:45:00.000Z,280.1
2023-04-15T14:47:06.000Z,280.12
2023-04-15T14:48:33.000Z,280.12
2023-04-15T14:50:39.000Z,280.1
2023-04-15T14:52:05.000Z,280.12
2023-04-15T14:54:12.000Z,280.12
2023-04-15T14:55:38.000Z,280.12
2023-04-15T14:57:44.000Z,280.14
2023-04-15T15:00:36.000Z,280.16
2023-04-15T15:02:02.000Z,280.2
2023-04-15T15:04:08.000Z,280.2
2023-04-15T15:05:35.000Z,280.18
2023-04-15T15:07:41.000Z,280.2
2023-04-15T15:09:08.000Z,280.2
2023-04-15T15:11:14.000Z,280.21
2023-04-15T15:12:40.000Z,280.21
2023-04-15T15:14:46.000Z,280.23
2023-04-15T15:16:13.000Z,280.24
2023-04-15T15:18:20.000Z,280.23
2023-04-15T15:19:47.000Z,280.24
2023-04-15T15:21:53.000Z,280.24
2023-04-15T15:23:19.000Z,280.24
2023-04-15T15:25:26.000Z,280.24
2023-04-15T15:26:52.000Z,280.24
2023-04-15T15:28:58.000Z,280.24
2023-04-15T15:30:25.000Z,280.25
2023-04-15T15:32:31.000Z,280.27
2023-04-15T15:33:58.000Z,280.28
2023-04-15T15:36:04.000Z,280.3
2023-04-15T15:38:55.000Z,280.31
2023-04-15T15:40:21.000Z,280.32
2023-04-15T15:42:28.000Z,280.32
2023-04-15T15:43:54.000Z,280.34
2023-04-15T15:46:00.000Z,280.34
2023-04-15T15:47:27.000Z,280.34
2023-04-15T15:49:33.000Z,280.35
2023-04-15T15:50:59.000Z,280.35
2023-04-15T15:53:05.000Z,280.35
2023-04-15T15:54:32.000Z,280.35
2023-04-15T15:56:38.000Z,280.37
2023-04-15T15:58:05.000Z,280.38
2023-04-15T16:00:11.000Z,280.38
2023-04-15T16:01:39.000Z,280.4
2023-04-15T16:03:45.000Z,280.4
2023-04-15T16:05:12.000Z,280.42
2023-04-15T16:07:18.000Z,280.42
2023-04-15T16:08:44.000Z,280.42
2023-04-15T16:10:51.000Z,280.42
2023-04-15T16:12:17.000Z,280.42
2023-04-15T16:14:23.000Z,280.42
2023-04-15T16:17:14.000Z,280.4
2023-04-15T16:18:41.000Z,280.43
2023-04-15T16:20:47.000Z,280.42
2023-04-15T16:22:14.000Z,280.4
2023-04-15T16:24:20.000Z,280.42
2023-04-15T16:25:46.000Z,280.42
2023-04-15T16:27:52.000Z,280.42
2023-04-15T16:29:34.000Z,280.42
2023-04-15T16:31:41.000Z,280.43
2023-04-15T16:33:07.000Z,280.42
2023-04-15T16:35:14.000Z,280.43
2023-04-15T16:36:40.000Z,280.43
2023-04-15T16:38:46.000Z,280.42
2023-04-15T16:40:13.000Z,280.42
2023-04-15T16:42:19.000Z,280.42
2023-04-15T16:43:46.000Z,280.42
2023-04-15T16:45:52.000Z,280.42
2023-04-15T16:47:18.000Z,280.4
2023-04-15T16:49:24.000Z,280.4
2023-04-15T16:50:51.000Z,280.42
2023-04-15T16:52:57.000Z,280.42
2023-04-15T16:55:48.000Z,280.4
2023-04-15T16:57:15.000Z,280.42
2023-04-15T16:59:21.000Z,280.42
2023-04-15T17:00:47.000Z,280.42
2023-04-15T17:02:53.000Z,280.4
2023-04-15T17:04:20.000Z,280.4
2023-04-15T17:06:26.000Z,280.42
2023-04-15T17:07:53.000Z,280.42
2023-04-15T17:09:59.000Z,280.42
2023-04-15T17:11:26.000Z,280.43
2023-04-15T17:13:32.000Z,280.43
2023-04-15T17:14:58.000Z,280.42
2023-04-15T17:17:04.000Z,280.43
2023-04-15T17:18:31.000Z,280.45
2023-04-15T17:20:37.000Z,280.43
2023-04-15T17:22:03.000Z,280.45
2023-04-15T17:24:10.000Z,280.45
2023-04-15T17:25:36.000Z,280.46
2023-04-15T17:27:42.000Z,280.46
2023-04-15T17:29:09.000Z,280.46
2023-04-15T17:31:15.000Z,280.47
2023-04-15T17:34:06.000Z,280.49
2023-04-15T17:35:37.000Z,280.49
2023-04-15T17:37:43.000Z,280.47
2023-04-15T17:39:09.000Z,280.47
2023-04-15T17:41:15.000Z,280.49
2023-04-15T17:42:42.000Z,280.47
2023-04-15T17:44:48.000Z,280.49
2023-04-15T17:46:15.000Z,280.49
2023-04-15T17:48:21.000Z,280.49
2023-04-15T17:49:47.000Z,280.49
2023-04-15T17:51:53.000Z,280.5
2023-04-15T17:53:20.000Z,280.5
2023-04-15T17:55:26.000Z,280.49
2023-04-15T17:56:52.000Z,280.49
2023-04-15T17:58:58.000Z,280.5
2023-04-15T18:00:25.000Z,280.5
2023-04-15T18:02:31.000Z,280.51
2023-04-15T18:04:01.000Z,280.51
2023-04-15T18:06:08.000Z,280.51
2023-04-15T18:07:34.000Z,280.53
2023-04-15T18:09:40.000Z,280.53
2023-04-15T18:12:31.000Z,280.51
2023-04-15T18:13:58.000Z,280.51
2023-04-15T18:16:04.000Z,280.51
2023-04-15T18:17:31.000Z,280.5
2023-04-15T18:19:37.000Z,280.5
2023-04-15T18:21:03.000Z,280.5
2023-04-15T18:23:10.000Z,280.5
2023-04-15T18:24:36.000Z,280.5
2023-04-15T18:26:42.000Z,280.5
2023-04-15T18:28:09.000Z,280.49
2023-04-15T18:30:15.000Z,280.5
2023-04-15T18:31:41.000Z,280.5
2023-04-15T18:33:48.000Z,280.49
2023-04-15T18:35:14.000Z,280.49
2023-04-15T18:37:20.000Z,280.49
2023-04-15T18:38:47.000Z,280.49
2023-04-15T18:40:53.000Z,280.49
2023-04-15T18:42:19.000Z,280.5
2023-04-15T18:44:25.000Z,280.5
2023-04-15T18:45:52.000Z,280.51
2023-04-15T18:47:58.000Z,280.51
2023-04-15T18:50:50.000Z,280.51
2023-04-15T18:52:16.000Z,280.51
2023-04-15T18:54:22.000Z,280.51
2023-04-15T18:55:49.000Z,280.53
2023-04-15T18:57:55.000Z,280.53
2023-04-15T18:59:32.000Z,280.53
2023-04-15T19:01:38.000Z,280.54
2023-04-15T19:03:05.000Z,280.54
2023-04-15T19:05:11.000Z,280.56
2023-04-15T19:06:38.000Z,280.54
2023-04-15T19:08:44.000Z,280.54
2023-04-15T19:10:10.000Z,280.54
2023-04-15T19:12:17.000Z,280.57
2023-04-15T19:13:43.000Z,280.54
2023-04-15T19:15:49.000Z,280.54
2023-04-15T19:17:16.000Z,280.56
2023-04-15T19:19:22.000Z,280.54
2023-04-15T19:20:48.000Z,280.54
2023-04-15T19:22:55.000Z,280.54
2023-04-15T19:24:21.000Z,280.54
2023-04-15T19:26:27.000Z,280.56
2023-04-15T19:29:18.000Z,280.56
2023-04-15T19:30:44.000Z,280.56
2023-04-15T19:32:51.000Z,280.56
2023-04-15T19:34:17.000Z,280.54
2023-04-15T19:36:23.000Z,280.57
2023-04-15T19:37:50.000Z,280.56
2023-04-15T19:39:56.000Z,280.56
2023-04-15T19:41:23.000Z,280.57
2023-04-15T19:43:29.000Z,280.57
2023-04-15T19:44:55.000Z,280.57
2023-04-15T19:47:01.000Z,280.57
2023-04-15T19:48:28.000Z,280.57
2023-04-15T19:50:34.000Z,280.56
2023-04-15T19:52:00.000Z,280.57
2023-04-15T19:54:06.000Z,280.57
2023-04-15T19:55:33.000Z,280.59
2023-04-15T19:57:39.000Z,280.57
2023-04-15T19:59:06.000Z,280.61
2023-04-15T20:01:12.000Z,280.61
2023-04-15T20:02:38.000Z,280.61
2023-04-15T20:04:45.000Z,280.59
2023-04-15T20:07:36.000Z,280.62
2023-04-15T20:09:02.000Z,280.62
2023-04-15T20:11:09.000Z,280.62
2023-04-15T20:12:35.000Z,280.61
2023-04-15T20:14:58.000Z,280.61
2023-04-15T20:16:25.000Z,280.61
2023-04-15T20:18:31.000Z,280.61
2023-04-15T20:19:58.000Z,280.62
2023-04-15T20:22:04.000Z,280.65
2023-04-15T20:23:30.000Z,280.62
2023-04-15T20:25:36.000Z,280.64
2023-04-15T20:27:03.000Z,280.64
2023-04-15T20:29:09.000Z,280.64
2023-04-15T20:30:35.000Z,280.64
2023-04-15T20:32:41.000Z,280.65
2023-04-15T20:36:14.000Z,280.64
2023-04-15T20:37:41.000Z,280.66
2023-04-15T20:39:47.000Z,280.66
2023-04-15T20:41:13.000Z,280.65
2023-04-15T20:43:19.000Z,280.65
2023-04-15T20:46:11.000Z,280.65
2023-04-15T20:47:47.000Z,280.65
2023-04-15T20:49:53.000Z,280.65
2023-04-15T20:51:19.000Z,280.66
2023-04-15T20:53:25.000Z,280.66
2023-04-15T20:54:52.000Z,280.66
2023-04-15T20:56:58.000Z,280.66
2023-04-15T20:58:24.000Z,280.66
2023-04-15T21:00:30.000Z,280.66
2023-04-15T21:01:57.000Z,280.66
2023-04-15T21:04:03.000Z,280.66
2023-04-15T21:05:30.000Z,280.66
2023-04-15T21:07:36.000Z,280.66
2023-04-15T21:09:02.000Z,280.65
2023-04-15T21:11:09.000Z,280.65
2023-04-15T21:12:36.000Z,280.62
2023-04-15T21:14:42.000Z,280.62
2023-04-15T21:16:08.000Z,280.64
2023-04-15T21:18:14.000Z,280.65
2023-04-15T21:19:41.000Z,280.64
2023-04-15T21:21:47.000Z,280.64
2023-04-15T21:24:38.000Z,280.65
2023-04-15T21:26:05.000Z,280.64
2023-04-15T21:28:11.000Z,280.64
2023-04-15T21:29:37.000Z,280.65
2023-04-15T21:31:43.000Z,280.66
2023-04-15T21:33:10.000Z,280.65
2023-04-15T21:35:16.000Z,280.66
2023-04-15T21:36:43.000Z,280.68
2023-04-15T21:38:49.000Z,280.68
2023-04-15T21:40:15.000Z,280.68
2023-04-15T21:42:22.000Z,280.68
2023-04-15T21:43:48.000Z,280.68
2023-04-15T21:45:54.000Z,280.68
2023-04-15T21:47:51.000Z,280.68
2023-04-15T21:50:13.000Z,280.68
2023-04-15T21:51:39.000Z,280.68
2023-04-15T21:53:45.000Z,280.69
2023-04-15T21:55:12.000Z,280.68
2023-04-15T21:57:18.000Z,280.68
2023-04-15T21:58:45.000Z,280.71
2023-04-15T22:00:51.000Z,280.71
2023-04-15T22:03:42.000Z,280.71
2023-04-15T22:05:09.000Z,280.71
2023-04-15T22:07:15.000Z,280.72
2023-04-15T22:08:41.000Z,280.72
2023-04-15T22:11:02.000Z,280.72
2023-04-15T22:12:29.000Z,280.71
2023-04-15T22:14:35.000Z,280.71
2023-04-15T22:16:01.000Z,280.71
2023-04-15T22:18:07.000Z,280.71
2023-04-15T22:19:34.000Z,280.71
2023-04-15T22:21:40.000Z,280.71
2023-04-15T22:23:06.000Z,280.72
2023-04-15T22:25:13.000Z,280.72
2023-04-15T22:26:39.000Z,280.73
2023-04-15T22:28:45.000Z,280.72
2023-04-15T22:30:12.000Z,280.73
2023-04-15T22:32:18.000Z,280.73
2023-04-15T22:33:44.000Z,280.75
2023-04-15T22:35:51.000Z,280.76
2023-04-15T22:37:17.000Z,280.76
2023-04-15T22:39:23.000Z,280.76
2023-04-15T22:42:14.000Z,280.76
2023-04-15T22:43:41.000Z,280.78
2023-04-15T22:45:47.000Z,280.79
2023-04-15T22:47:14.000Z,280.79
2023-04-15T22:49:20.000Z,280.79
2023-04-15T22:50:46.000Z,280.8
2023-04-15T22:52:52.000Z,280.82
2023-04-15T22:54:19.000Z,280.82
2023-04-15T22:56:25.000Z,280.83